sensor_id;sensor_type;location;lat;lon;timestamp;temperature;humidity
21019;DHT22;10667;51.056;3.732;2023-01-01T00:00:09;15.60;99.90
21019;DHT22;10667;51.056;3.732;2023-01-01T00:02:35;15.60;99.90
21019;DHT22;10667;51.056;3.732;2023-01-01T00:05:00;15.60;99.90
21019;DHT22;10667;51.056;3.732;2023-01-01T00:07:27;15.60;99.90
21019;DHT22;10667;51.056;3.732;2023-01-01T00:09:53;15.60;99.90
21019;DHT22;10667;51.056;3.732;2023-01-01T00:12:37;15.60;99.90
21019;DHT22;10667;51.056;3.732;2023-01-01T00:15:03;15.60;99.90
21019;DHT22;10667;51.056;3.732;2023-01-01T00:17:29;15.60;99.90
21019;DHT22;10667;51.056;3.732;2023-01-01T00:19:54;15.60;99.90
21019;DHT22;10667;51.056;3.732;2023-01-01T00:22:20;15.60;99.90
21019;DHT22;10667;51.056;3.732;2023-01-01T00:24:46;15.60;99.90
21019;DHT22;10667;51.056;3.732;2023-01-01T00:27:12;15.60;99.90
21019;DHT22;10667;51.056;3.732;2023-01-01T00:29:37;15.60;99.90
21019;DHT22;10667;51.056;3.732;2023-01-01T00:32:03;15.50;99.90
21019;DHT22;10667;51.056;3.732;2023-01-01T00:34:29;15.50;99.90
21019;DHT22;10667;51.056;3.732;2023-01-01T00:36:56;15.50;99.90
21019;DHT22;10667;51.056;3.732;2023-01-01T00:39:21;15.40;99.90
21019;DHT22;10667;51.056;3.732;2023-01-01T00:41:47;15.40;99.90
21019;DHT22;10667;51.056;3.732;2023-01-01T00:44:13;15.40;99.90
21019;DHT22;10667;51.056;3.732;2023-01-01T00:46:38;15.40;99.90
21019;DHT22;10667;51.056;3.732;2023-01-01T00:49:04;15.40;99.90
21019;DHT22;10667;51.056;3.732;2023-01-01T00:51:30;15.40;99.90
21019;DHT22;10667;51.056;3.732;2023-01-01T00:53:56;15.30;99.90
21019;DHT22;10667;51.056;3.732;2023-01-01T00:56:21;15.20;99.90
21019;DHT22;10667;51.056;3.732;2023-01-01T00:58:47;15.20;99.90
21019;DHT22;10667;51.056;3.732;2023-01-01T01:01:13;15.20;99.90
21019;DHT22;10667;51.056;3.732;2023-01-01T01:03:39;15.30;99.90
21019;DHT22;10667;51.056;3.732;2023-01-01T01:08:32;15.30;99.90
21019;DHT22;10667;51.056;3.732;2023-01-01T01:13:30;15.30;99.90
21019;DHT22;10667;51.056;3.732;2023-01-01T01:15:56;15.30;99.90
21019;DHT22;10667;51.056;3.732;2023-01-01T01:18:22;15.30;99.90
21019;DHT22;10667;51.056;3.732;2023-01-01T01:20:52;15.20;99.90
21019;DHT22;10667;51.056;3.732;2023-01-01T01:23:19;15.20;99.90
21019;DHT22;10667;51.056;3.732;2023-01-01T01:25:45;15.30;99.90
21019;DHT22;10667;51.056;3.732;2023-01-01T01:28:11;15.30;99.90
21019;DHT22;10667;51.056;3.732;2023-01-01T01:30:37;15.20;99.90
21019;DHT22;10667;51.056;3.732;2023-01-01T01:33:03;15.20;99.90
21019;DHT22;10667;51.056;3.732;2023-01-01T01:35:29;15.20;99.90
21019;DHT22;10667;51.056;3.732;2023-01-01T01:37:55;15.20;99.90
21019;DHT22;10667;51.056;3.732;2023-01-01T01:40:21;15.20;99.90
21019;DHT22;10667;51.056;3.732;2023-01-01T01:42:48;15.20;99.90
21019;DHT22;10667;51.056;3.732;2023-01-01T01:45:15;15.20;99.90
21019;DHT22;10667;51.056;3.732;2023-01-01T01:47:49;15.20;99.90
21019;DHT22;10667;51.056;3.732;2023-01-01T01:50:24;15.20;99.90
21019;DHT22;10667;51.056;3.732;2023-01-01T01:53:00;15.30;99.90
21019;DHT22;10667;51.056;3.732;2023-01-01T01:55:29;15.20;99.90
21019;DHT22;10667;51.056;3.732;2023-01-01T01:57:55;15.10;99.90
21019;DHT22;10667;51.056;3.732;2023-01-01T02:00:21;15.20;99.90
21019;DHT22;10667;51.056;3.732;2023-01-01T02:02:52;15.10;99.90
21019;DHT22;10667;51.056;3.732;2023-01-01T02:05:19;15.10;99.90
21019;DHT22;10667;51.056;3.732;2023-01-01T02:07:46;15.10;99.90
21019;DHT22;10667;51.056;3.732;2023-01-01T02:10:12;15.10;99.90
21019;DHT22;10667;51.056;3.732;2023-01-01T02:12:38;15.10;99.90
21019;DHT22;10667;51.056;3.732;2023-01-01T02:15:05;15.10;99.90
21019;DHT22;10667;51.056;3.732;2023-01-01T02:17:36;15.20;99.90
21019;DHT22;10667;51.056;3.732;2023-01-01T02:30:35;15.10;99.90
21019;DHT22;10667;51.056;3.732;2023-01-01T02:33:22;15.00;99.90
21019;DHT22;10667;51.056;3.732;2023-01-01T02:35:53;14.90;99.90
21019;DHT22;10667;51.056;3.732;2023-01-01T02:38:34;15.00;99.90
21019;DHT22;10667;51.056;3.732;2023-01-01T02:41:11;14.90;99.90
21019;DHT22;10667;51.056;3.732;2023-01-01T02:43:38;15.00;99.90
21019;DHT22;10667;51.056;3.732;2023-01-01T02:46:06;14.90;99.90
21019;DHT22;10667;51.056;3.732;2023-01-01T02:48:43;14.90;99.90
21019;DHT22;10667;51.056;3.732;2023-01-01T02:54:11;15.00;99.90
21019;DHT22;10667;51.056;3.732;2023-01-01T02:56:47;14.90;99.90
21019;DHT22;10667;51.056;3.732;2023-01-01T03:10:45;14.90;99.90
21019;DHT22;10667;51.056;3.732;2023-01-01T03:16:18;14.90;99.90
21019;DHT22;10667;51.056;3.732;2023-01-01T03:25:03;15.10;99.90
21019;DHT22;10667;51.056;3.732;2023-01-01T03:27:51;15.00;99.90
21019;DHT22;10667;51.056;3.732;2023-01-01T03:30:19;15.00;99.90
21019;DHT22;10667;51.056;3.732;2023-01-01T03:35:51;15.00;99.90
21019;DHT22;10667;51.056;3.732;2023-01-01T03:38:32;15.00;99.90
21019;DHT22;10667;51.056;3.732;2023-01-01T03:41:14;15.00;99.90
21019;DHT22;10667;51.056;3.732;2023-01-01T03:46:37;15.00;99.90
21019;DHT22;10667;51.056;3.732;2023-01-01T03:49:05;15.00;99.90
21019;DHT22;10667;51.056;3.732;2023-01-01T04:00:23;15.00;99.90
21019;DHT22;10667;51.056;3.732;2023-01-01T04:03:31;15.10;99.90
21019;DHT22;10667;51.056;3.732;2023-01-01T04:05:50;15.10;99.90
21019;DHT22;10667;51.056;3.732;2023-01-01T04:08:17;15.10;99.90
21019;DHT22;10667;51.056;3.732;2023-01-01T04:10:46;15.20;99.90
21019;DHT22;10667;51.056;3.732;2023-01-01T04:13:13;15.10;99.90
21019;DHT22;10667;51.056;3.732;2023-01-01T04:15:39;15.10;99.90
21019;DHT22;10667;51.056;3.732;2023-01-01T04:18:05;15.10;99.90
21019;DHT22;10667;51.056;3.732;2023-01-01T04:20:31;15.10;99.90
21019;DHT22;10667;51.056;3.732;2023-01-01T04:22:58;15.20;99.90
21019;DHT22;10667;51.056;3.732;2023-01-01T04:25:24;15.00;99.90
21019;DHT22;10667;51.056;3.732;2023-01-01T04:27:50;14.90;99.90
21019;DHT22;10667;51.056;3.732;2023-01-01T04:30:16;14.70;99.90
21019;DHT22;10667;51.056;3.732;2023-01-01T04:32:42;14.30;99.90
21019;DHT22;10667;51.056;3.732;2023-01-01T04:35:13;14.10;99.90
21019;DHT22;10667;51.056;3.732;2023-01-01T04:37:40;13.60;99.90
21019;DHT22;10667;51.056;3.732;2023-01-01T04:40:07;13.30;99.90
21019;DHT22;10667;51.056;3.732;2023-01-01T04:42:33;13.10;99.90
21019;DHT22;10667;51.056;3.732;2023-01-01T04:44:59;13.10;99.90
21019;DHT22;10667;51.056;3.732;2023-01-01T04:47:24;12.90;99.90
21019;DHT22;10667;51.056;3.732;2023-01-01T04:49:53;12.90;99.90
21019;DHT22;10667;51.056;3.732;2023-01-01T04:52:19;12.80;99.90
21019;DHT22;10667;51.056;3.732;2023-01-01T04:54:45;12.70;99.90
21019;DHT22;10667;51.056;3.732;2023-01-01T04:57:11;12.70;99.90
21019;DHT22;10667;51.056;3.732;2023-01-01T04:59:37;12.60;99.90
21019;DHT22;10667;51.056;3.732;2023-01-01T05:02:03;12.50;99.90
21019;DHT22;10667;51.056;3.732;2023-01-01T05:04:29;12.60;99.90
21019;DHT22;10667;51.056;3.732;2023-01-01T05:06:54;12.60;99.90
21019;DHT22;10667;51.056;3.732;2023-01-01T05:09:20;12.60;99.90
21019;DHT22;10667;51.056;3.732;2023-01-01T05:11:46;12.60;99.90
21019;DHT22;10667;51.056;3.732;2023-01-01T05:14:12;12.60;99.90
21019;DHT22;10667;51.056;3.732;2023-01-01T05:16:38;12.60;99.90
21019;DHT22;10667;51.056;3.732;2023-01-01T05:19:05;12.60;99.90
21019;DHT22;10667;51.056;3.732;2023-01-01T05:21:33;12.60;99.90
21019;DHT22;10667;51.056;3.732;2023-01-01T05:24:02;12.60;99.90
21019;DHT22;10667;51.056;3.732;2023-01-01T05:26:34;12.60;99.90
21019;DHT22;10667;51.056;3.732;2023-01-01T05:29:00;12.70;99.90
21019;DHT22;10667;51.056;3.732;2023-01-01T05:31:28;12.80;99.90
21019;DHT22;10667;51.056;3.732;2023-01-01T05:33:55;12.80;99.90
21019;DHT22;10667;51.056;3.732;2023-01-01T05:36:27;12.80;99.90
21019;DHT22;10667;51.056;3.732;2023-01-01T05:38:53;12.80;99.90
21019;DHT22;10667;51.056;3.732;2023-01-01T05:41:20;12.80;99.90
21019;DHT22;10667;51.056;3.732;2023-01-01T05:43:46;12.90;99.90
21019;DHT22;10667;51.056;3.732;2023-01-01T05:46:23;12.90;99.90
21019;DHT22;10667;51.056;3.732;2023-01-01T05:48:50;13.00;99.90
21019;DHT22;10667;51.056;3.732;2023-01-01T05:51:21;13.00;99.90
21019;DHT22;10667;51.056;3.732;2023-01-01T05:53:47;13.00;99.90
21019;DHT22;10667;51.056;3.732;2023-01-01T05:56:14;13.00;99.90
21019;DHT22;10667;51.056;3.732;2023-01-01T05:58:40;12.90;99.90
21019;DHT22;10667;51.056;3.732;2023-01-01T06:03:34;12.90;99.90
21019;DHT22;10667;51.056;3.732;2023-01-01T06:06:12;12.90;99.90
21019;DHT22;10667;51.056;3.732;2023-01-01T06:08:39;13.00;99.90
21019;DHT22;10667;51.056;3.732;2023-01-01T06:11:07;13.10;99.90
21019;DHT22;10667;51.056;3.732;2023-01-01T06:13:33;13.00;99.90
21019;DHT22;10667;51.056;3.732;2023-01-01T06:16:00;13.00;99.90
21019;DHT22;10667;51.056;3.732;2023-01-01T06:18:29;13.00;99.90
21019;DHT22;10667;51.056;3.732;2023-01-01T06:21:09;13.00;99.90
21019;DHT22;10667;51.056;3.732;2023-01-01T06:23:35;13.00;99.90
21019;DHT22;10667;51.056;3.732;2023-01-01T06:28:38;12.90;99.90
21019;DHT22;10667;51.056;3.732;2023-01-01T06:31:06;13.00;99.90
21019;DHT22;10667;51.056;3.732;2023-01-01T06:33:33;12.90;99.90
21019;DHT22;10667;51.056;3.732;2023-01-01T06:36:01;12.90;99.90
21019;DHT22;10667;51.056;3.732;2023-01-01T06:38:30;12.70;99.90
21019;DHT22;10667;51.056;3.732;2023-01-01T06:40:57;12.60;99.90
21019;DHT22;10667;51.056;3.732;2023-01-01T06:43:24;12.60;99.90
21019;DHT22;10667;51.056;3.732;2023-01-01T06:46:05;12.60;99.90
21019;DHT22;10667;51.056;3.732;2023-01-01T06:48:33;12.60;99.90
21019;DHT22;10667;51.056;3.732;2023-01-01T06:51:08;12.60;99.90
21019;DHT22;10667;51.056;3.732;2023-01-01T06:53:34;12.70;99.90
21019;DHT22;10667;51.056;3.732;2023-01-01T06:55:59;12.50;99.90
21019;DHT22;10667;51.056;3.732;2023-01-01T06:58:25;12.40;99.90
21019;DHT22;10667;51.056;3.732;2023-01-01T07:00:51;12.40;99.90
21019;DHT22;10667;51.056;3.732;2023-01-01T07:03:16;12.30;99.90
21019;DHT22;10667;51.056;3.732;2023-01-01T07:05:42;12.30;99.90
21019;DHT22;10667;51.056;3.732;2023-01-01T07:08:08;12.30;99.90
21019;DHT22;10667;51.056;3.732;2023-01-01T07:10:33;12.40;99.90
21019;DHT22;10667;51.056;3.732;2023-01-01T07:12:59;12.40;99.90
21019;DHT22;10667;51.056;3.732;2023-01-01T07:15:26;12.40;99.90
21019;DHT22;10667;51.056;3.732;2023-01-01T07:17:52;12.40;99.90
21019;DHT22;10667;51.056;3.732;2023-01-01T07:20:17;12.30;99.90
21019;DHT22;10667;51.056;3.732;2023-01-01T07:22:43;12.20;99.90
21019;DHT22;10667;51.056;3.732;2023-01-01T07:25:11;12.20;99.90
21019;DHT22;10667;51.056;3.732;2023-01-01T07:27:38;12.20;99.90
21019;DHT22;10667;51.056;3.732;2023-01-01T07:30:04;12.20;99.90
21019;DHT22;10667;51.056;3.732;2023-01-01T07:32:30;12.20;99.90
21019;DHT22;10667;51.056;3.732;2023-01-01T07:34:56;12.30;99.90
21019;DHT22;10667;51.056;3.732;2023-01-01T07:37:21;12.40;99.90
21019;DHT22;10667;51.056;3.732;2023-01-01T07:39:51;12.50;99.90
21019;DHT22;10667;51.056;3.732;2023-01-01T07:42:17;12.50;99.90
21019;DHT22;10667;51.056;3.732;2023-01-01T07:44:43;12.50;99.90
21019;DHT22;10667;51.056;3.732;2023-01-01T07:47:24;12.60;99.90
21019;DHT22;10667;51.056;3.732;2023-01-01T07:49:50;12.60;99.90
21019;DHT22;10667;51.056;3.732;2023-01-01T07:52:17;12.70;99.90
21019;DHT22;10667;51.056;3.732;2023-01-01T07:54:43;12.70;99.90
21019;DHT22;10667;51.056;3.732;2023-01-01T07:57:09;12.70;99.90
21019;DHT22;10667;51.056;3.732;2023-01-01T07:59:35;12.80;99.90
21019;DHT22;10667;51.056;3.732;2023-01-01T08:02:01;12.70;99.90
21019;DHT22;10667;51.056;3.732;2023-01-01T08:04:27;12.70;99.90
21019;DHT22;10667;51.056;3.732;2023-01-01T08:06:53;12.70;99.90
21019;DHT22;10667;51.056;3.732;2023-01-01T08:09:18;12.60;99.90
21019;DHT22;10667;51.056;3.732;2023-01-01T08:11:44;12.70;99.90
21019;DHT22;10667;51.056;3.732;2023-01-01T08:14:10;12.90;99.90
21019;DHT22;10667;51.056;3.732;2023-01-01T08:16:36;13.00;99.90
21019;DHT22;10667;51.056;3.732;2023-01-01T08:19:02;13.00;99.90
21019;DHT22;10667;51.056;3.732;2023-01-01T08:21:28;13.00;99.90
21019;DHT22;10667;51.056;3.732;2023-01-01T08:23:54;12.90;99.90
21019;DHT22;10667;51.056;3.732;2023-01-01T08:26:31;12.90;99.90
21019;DHT22;10667;51.056;3.732;2023-01-01T08:28:57;12.80;99.90
21019;DHT22;10667;51.056;3.732;2023-01-01T08:31:24;12.80;99.90
21019;DHT22;10667;51.056;3.732;2023-01-01T08:33:50;12.80;99.90
21019;DHT22;10667;51.056;3.732;2023-01-01T08:36:15;12.90;99.90
21019;DHT22;10667;51.056;3.732;2023-01-01T08:38:42;12.80;99.90
21019;DHT22;10667;51.056;3.732;2023-01-01T08:41:08;12.80;99.90
21019;DHT22;10667;51.056;3.732;2023-01-01T08:43:34;12.90;99.90
21019;DHT22;10667;51.056;3.732;2023-01-01T08:45:59;13.00;99.90
21019;DHT22;10667;51.056;3.732;2023-01-01T08:48:25;12.90;99.90
21019;DHT22;10667;51.056;3.732;2023-01-01T08:50:55;13.00;99.90
21019;DHT22;10667;51.056;3.732;2023-01-01T08:53:21;13.10;99.90
21019;DHT22;10667;51.056;3.732;2023-01-01T08:56:14;13.10;99.90
21019;DHT22;10667;51.056;3.732;2023-01-01T08:58:40;13.00;99.90
21019;DHT22;10667;51.056;3.732;2023-01-01T09:01:07;13.10;99.90
21019;DHT22;10667;51.056;3.732;2023-01-01T09:03:33;13.10;99.90
21019;DHT22;10667;51.056;3.732;2023-01-01T09:05:59;13.10;99.90
21019;DHT22;10667;51.056;3.732;2023-01-01T09:08:25;13.10;99.90
21019;DHT22;10667;51.056;3.732;2023-01-01T09:10:51;13.10;99.90
21019;DHT22;10667;51.056;3.732;2023-01-01T09:13:19;13.20;99.90
21019;DHT22;10667;51.056;3.732;2023-01-01T09:15:45;13.20;99.90
21019;DHT22;10667;51.056;3.732;2023-01-01T09:18:12;13.20;99.90
21019;DHT22;10667;51.056;3.732;2023-01-01T09:20:38;13.10;99.90
21019;DHT22;10667;51.056;3.732;2023-01-01T09:23:05;13.10;99.90
21019;DHT22;10667;51.056;3.732;2023-01-01T09:25:31;13.10;99.90
21019;DHT22;10667;51.056;3.732;2023-01-01T09:27:58;13.10;99.90
21019;DHT22;10667;51.056;3.732;2023-01-01T09:30:25;13.10;99.90
21019;DHT22;10667;51.056;3.732;2023-01-01T09:32:51;13.10;99.90
21019;DHT22;10667;51.056;3.732;2023-01-01T09:35:16;13.20;99.90
21019;DHT22;10667;51.056;3.732;2023-01-01T09:37:42;13.10;99.90
21019;DHT22;10667;51.056;3.732;2023-01-01T09:40:27;13.10;99.90
21019;DHT22;10667;51.056;3.732;2023-01-01T09:45:32;13.30;99.90
21019;DHT22;10667;51.056;3.732;2023-01-01T09:48:05;13.30;99.90
21019;DHT22;10667;51.056;3.732;2023-01-01T09:50:43;13.20;99.90
21019;DHT22;10667;51.056;3.732;2023-01-01T09:55:56;13.20;99.90
21019;DHT22;10667;51.056;3.732;2023-01-01T09:58:27;13.20;99.90
21019;DHT22;10667;51.056;3.732;2023-01-01T10:00:56;13.10;99.90
21019;DHT22;10667;51.056;3.732;2023-01-01T10:03:40;13.10;99.90
21019;DHT22;10667;51.056;3.732;2023-01-01T10:06:18;13.10;99.90
21019;DHT22;10667;51.056;3.732;2023-01-01T10:08:58;13.20;99.90
21019;DHT22;10667;51.056;3.732;2023-01-01T10:13:53;13.10;99.90
21019;DHT22;10667;51.056;3.732;2023-01-01T10:19:23;13.20;99.90
21019;DHT22;10667;51.056;3.732;2023-01-01T10:21:46;13.20;99.90
21019;DHT22;10667;51.056;3.732;2023-01-01T10:24:37;13.20;99.90
21019;DHT22;10667;51.056;3.732;2023-01-01T10:27:07;13.20;99.90
21019;DHT22;10667;51.056;3.732;2023-01-01T10:29:44;13.20;99.90
21019;DHT22;10667;51.056;3.732;2023-01-01T10:32:19;13.40;99.90
21019;DHT22;10667;51.056;3.732;2023-01-01T10:34:45;13.40;99.90
21019;DHT22;10667;51.056;3.732;2023-01-01T10:37:12;13.40;99.90
21019;DHT22;10667;51.056;3.732;2023-01-01T10:39:40;13.50;99.90
21019;DHT22;10667;51.056;3.732;2023-01-01T10:42:06;13.60;99.90
21019;DHT22;10667;51.056;3.732;2023-01-01T10:44:34;13.60;99.90
21019;DHT22;10667;51.056;3.732;2023-01-01T10:49:58;13.70;99.90
21019;DHT22;10667;51.056;3.732;2023-01-01T10:52:36;13.80;99.90
21019;DHT22;10667;51.056;3.732;2023-01-01T10:55:03;13.80;99.90
21019;DHT22;10667;51.056;3.732;2023-01-01T11:00:25;13.70;99.90
21019;DHT22;10667;51.056;3.732;2023-01-01T11:03:12;13.80;99.90
21019;DHT22;10667;51.056;3.732;2023-01-01T11:05:59;13.90;99.90
21019;DHT22;10667;51.056;3.732;2023-01-01T11:08:27;13.80;99.90
21019;DHT22;10667;51.056;3.732;2023-01-01T11:10:56;13.70;99.90
21019;DHT22;10667;51.056;3.732;2023-01-01T11:13:22;13.80;99.90
21019;DHT22;10667;51.056;3.732;2023-01-01T11:15:48;13.70;99.90
21019;DHT22;10667;51.056;3.732;2023-01-01T11:18:19;13.80;99.90
21019;DHT22;10667;51.056;3.732;2023-01-01T11:20:56;13.90;99.90
21019;DHT22;10667;51.056;3.732;2023-01-01T11:26:20;13.80;99.90
21019;DHT22;10667;51.056;3.732;2023-01-01T11:29:16;13.80;99.90
21019;DHT22;10667;51.056;3.732;2023-01-01T11:31:45;13.80;99.90
21019;DHT22;10667;51.056;3.732;2023-01-01T11:39:43;13.80;99.90
21019;DHT22;10667;51.056;3.732;2023-01-01T11:42:20;13.80;99.90
21019;DHT22;10667;51.056;3.732;2023-01-01T11:47:42;14.00;99.90
21019;DHT22;10667;51.056;3.732;2023-01-01T11:52:46;14.20;99.90
21019;DHT22;10667;51.056;3.732;2023-01-01T11:58:14;14.20;99.90
21019;DHT22;10667;51.056;3.732;2023-01-01T12:00:42;14.20;99.90
21019;DHT22;10667;51.056;3.732;2023-01-01T12:03:14;14.20;99.90
21019;DHT22;10667;51.056;3.732;2023-01-01T12:08:36;14.20;99.90
21019;DHT22;10667;51.056;3.732;2023-01-01T12:13:48;14.20;99.90
21019;DHT22;10667;51.056;3.732;2023-01-01T12:16:41;14.20;99.90
21019;DHT22;10667;51.056;3.732;2023-01-01T12:19:44;14.20;99.90
21019;DHT22;10667;51.056;3.732;2023-01-01T12:22:16;14.20;99.90
21019;DHT22;10667;51.056;3.732;2023-01-01T12:24:43;14.30;99.90
21019;DHT22;10667;51.056;3.732;2023-01-01T12:27:18;14.20;99.90
21019;DHT22;10667;51.056;3.732;2023-01-01T12:47:43;14.10;99.90
21019;DHT22;10667;51.056;3.732;2023-01-01T12:56:04;14.10;99.90
21019;DHT22;10667;51.056;3.732;2023-01-01T13:01:30;14.20;99.90
21019;DHT22;10667;51.056;3.732;2023-01-01T13:04:00;14.30;99.90
21019;DHT22;10667;51.056;3.732;2023-01-01T13:06:50;14.30;99.90
21019;DHT22;10667;51.056;3.732;2023-01-01T13:09:22;14.20;99.90
21019;DHT22;10667;51.056;3.732;2023-01-01T13:14:45;14.20;99.90
21019;DHT22;10667;51.056;3.732;2023-01-01T13:19:44;14.20;99.90
21019;DHT22;10667;51.056;3.732;2023-01-01T13:33:25;14.30;99.90
21019;DHT22;10667;51.056;3.732;2023-01-01T13:38:47;14.30;99.90
21019;DHT22;10667;51.056;3.732;2023-01-01T13:41:40;14.30;99.90
21019;DHT22;10667;51.056;3.732;2023-01-01T13:49:42;14.20;99.90
21019;DHT22;10667;51.056;3.732;2023-01-01T14:03:19;14.30;99.90
21019;DHT22;10667;51.056;3.732;2023-01-01T14:05:57;14.30;99.90
21019;DHT22;10667;51.056;3.732;2023-01-01T14:08:34;14.20;99.90
21019;DHT22;10667;51.056;3.732;2023-01-01T14:11:02;14.30;99.90
21019;DHT22;10667;51.056;3.732;2023-01-01T14:13:30;14.30;99.90
21019;DHT22;10667;51.056;3.732;2023-01-01T14:16:06;14.30;99.90
21019;DHT22;10667;51.056;3.732;2023-01-01T14:18:37;14.30;99.90
21019;DHT22;10667;51.056;3.732;2023-01-01T14:21:16;14.30;99.90
21019;DHT22;10667;51.056;3.732;2023-01-01T14:23:48;14.30;99.90
21019;DHT22;10667;51.056;3.732;2023-01-01T14:26:19;14.30;99.90
21019;DHT22;10667;51.056;3.732;2023-01-01T14:28:46;14.30;99.90
21019;DHT22;10667;51.056;3.732;2023-01-01T14:31:16;14.30;99.90
21019;DHT22;10667;51.056;3.732;2023-01-01T14:33:42;14.30;99.90
21019;DHT22;10667;51.056;3.732;2023-01-01T14:36:23;14.20;99.90
21019;DHT22;10667;51.056;3.732;2023-01-01T14:38:51;14.10;99.90
21019;DHT22;10667;51.056;3.732;2023-01-01T14:41:23;14.10;99.90
21019;DHT22;10667;51.056;3.732;2023-01-01T14:43:52;14.20;99.90
21019;DHT22;10667;51.056;3.732;2023-01-01T14:46:22;14.00;99.90
21019;DHT22;10667;51.056;3.732;2023-01-01T14:48:50;14.10;99.90
21019;DHT22;10667;51.056;3.732;2023-01-01T14:51:25;14.00;99.90
21019;DHT22;10667;51.056;3.732;2023-01-01T14:53:54;14.00;99.90
21019;DHT22;10667;51.056;3.732;2023-01-01T14:56:34;14.00;99.90
21019;DHT22;10667;51.056;3.732;2023-01-01T15:01:32;13.90;99.90
21019;DHT22;10667;51.056;3.732;2023-01-01T15:04:00;13.90;99.90
21019;DHT22;10667;51.056;3.732;2023-01-01T15:06:27;13.90;99.90
21019;DHT22;10667;51.056;3.732;2023-01-01T15:08:53;13.90;99.90
21019;DHT22;10667;51.056;3.732;2023-01-01T15:11:20;13.90;99.90
21019;DHT22;10667;51.056;3.732;2023-01-01T15:13:58;13.80;99.90
21019;DHT22;10667;51.056;3.732;2023-01-01T15:16:25;13.80;99.90
21019;DHT22;10667;51.056;3.732;2023-01-01T15:18:51;13.80;99.90
21019;DHT22;10667;51.056;3.732;2023-01-01T15:24:01;13.80;99.90
21019;DHT22;10667;51.056;3.732;2023-01-01T15:26:49;13.90;99.90
21019;DHT22;10667;51.056;3.732;2023-01-01T15:29:23;13.90;99.90
21019;DHT22;10667;51.056;3.732;2023-01-01T15:32:02;13.90;99.90
21019;DHT22;10667;51.056;3.732;2023-01-01T15:34:36;13.80;99.90
21019;DHT22;10667;51.056;3.732;2023-01-01T15:37:25;13.80;99.90
21019;DHT22;10667;51.056;3.732;2023-01-01T15:39:59;13.70;99.90
21019;DHT22;10667;51.056;3.732;2023-01-01T15:42:36;13.60;99.90
21019;DHT22;10667;51.056;3.732;2023-01-01T15:45:37;13.60;99.90
21019;DHT22;10667;51.056;3.732;2023-01-01T15:48:19;13.60;99.90
21019;DHT22;10667;51.056;3.732;2023-01-01T15:55:42;13.40;99.90
21019;DHT22;10667;51.056;3.732;2023-01-01T15:58:18;13.40;99.90
21019;DHT22;10667;51.056;3.732;2023-01-01T16:01:02;13.40;99.90
21019;DHT22;10667;51.056;3.732;2023-01-01T16:03:31;13.30;99.90
21019;DHT22;10667;51.056;3.732;2023-01-01T16:05:58;13.30;99.90
21019;DHT22;10667;51.056;3.732;2023-01-01T16:08:24;13.30;99.90
21019;DHT22;10667;51.056;3.732;2023-01-01T16:10:50;13.30;99.90
21019;DHT22;10667;51.056;3.732;2023-01-01T16:13:16;13.20;99.90
21019;DHT22;10667;51.056;3.732;2023-01-01T16:15:55;13.20;99.90
21019;DHT22;10667;51.056;3.732;2023-01-01T16:18:36;13.20;99.90
21019;DHT22;10667;51.056;3.732;2023-01-01T16:21:03;13.20;99.90
21019;DHT22;10667;51.056;3.732;2023-01-01T16:23:30;13.10;99.90
21019;DHT22;10667;51.056;3.732;2023-01-01T16:25:56;13.00;99.90
21019;DHT22;10667;51.056;3.732;2023-01-01T16:28:22;13.00;99.90
21019;DHT22;10667;51.056;3.732;2023-01-01T16:30:48;12.90;99.90
21019;DHT22;10667;51.056;3.732;2023-01-01T16:33:18;12.90;99.90
21019;DHT22;10667;51.056;3.732;2023-01-01T16:35:45;12.90;99.90
21019;DHT22;10667;51.056;3.732;2023-01-01T16:38:11;13.00;99.90
21019;DHT22;10667;51.056;3.732;2023-01-01T16:40:37;12.90;99.90
21019;DHT22;10667;51.056;3.732;2023-01-01T16:43:03;12.90;99.90
21019;DHT22;10667;51.056;3.732;2023-01-01T16:45:30;12.90;99.90
21019;DHT22;10667;51.056;3.732;2023-01-01T16:47:56;12.80;99.90
21019;DHT22;10667;51.056;3.732;2023-01-01T16:50:21;12.80;99.90
21019;DHT22;10667;51.056;3.732;2023-01-01T16:52:47;12.70;99.90
21019;DHT22;10667;51.056;3.732;2023-01-01T16:55:13;12.60;99.90
21019;DHT22;10667;51.056;3.732;2023-01-01T16:57:39;12.70;99.90
21019;DHT22;10667;51.056;3.732;2023-01-01T17:00:06;12.60;99.90
21019;DHT22;10667;51.056;3.732;2023-01-01T17:02:32;12.60;99.90
21019;DHT22;10667;51.056;3.732;2023-01-01T17:04:57;12.60;99.90
21019;DHT22;10667;51.056;3.732;2023-01-01T17:07:23;12.70;99.90
21019;DHT22;10667;51.056;3.732;2023-01-01T17:09:49;12.70;99.90
21019;DHT22;10667;51.056;3.732;2023-01-01T17:12:14;12.60;99.90
21019;DHT22;10667;51.056;3.732;2023-01-01T17:14:40;12.60;99.90
21019;DHT22;10667;51.056;3.732;2023-01-01T17:17:06;12.60;99.90
21019;DHT22;10667;51.056;3.732;2023-01-01T17:19:32;12.50;99.90
21019;DHT22;10667;51.056;3.732;2023-01-01T17:21:57;12.50;99.90
21019;DHT22;10667;51.056;3.732;2023-01-01T17:24:23;12.50;99.90
21019;DHT22;10667;51.056;3.732;2023-01-01T17:26:51;12.50;99.90
21019;DHT22;10667;51.056;3.732;2023-01-01T17:29:18;12.60;99.90
21019;DHT22;10667;51.056;3.732;2023-01-01T17:31:44;12.60;99.90
21019;DHT22;10667;51.056;3.732;2023-01-01T17:34:11;12.70;99.90
21019;DHT22;10667;51.056;3.732;2023-01-01T17:36:37;12.70;99.90
21019;DHT22;10667;51.056;3.732;2023-01-01T17:39:03;12.60;99.90
21019;DHT22;10667;51.056;3.732;2023-01-01T17:41:29;12.60;99.90
21019;DHT22;10667;51.056;3.732;2023-01-01T17:43:55;12.70;99.90
21019;DHT22;10667;51.056;3.732;2023-01-01T17:46:26;12.70;99.90
21019;DHT22;10667;51.056;3.732;2023-01-01T17:49:00;12.70;99.90
21019;DHT22;10667;51.056;3.732;2023-01-01T17:51:27;12.70;99.90
21019;DHT22;10667;51.056;3.732;2023-01-01T17:53:54;12.80;99.90
21019;DHT22;10667;51.056;3.732;2023-01-01T17:56:21;12.70;99.90
21019;DHT22;10667;51.056;3.732;2023-01-01T17:58:48;12.70;99.90
21019;DHT22;10667;51.056;3.732;2023-01-01T18:03:47;12.70;99.90
21019;DHT22;10667;51.056;3.732;2023-01-01T18:06:13;12.70;99.90
21019;DHT22;10667;51.056;3.732;2023-01-01T18:08:38;12.70;99.90
21019;DHT22;10667;51.056;3.732;2023-01-01T18:11:04;12.70;99.90
21019;DHT22;10667;51.056;3.732;2023-01-01T18:13:30;12.70;99.90
21019;DHT22;10667;51.056;3.732;2023-01-01T18:16:03;12.60;99.90
21019;DHT22;10667;51.056;3.732;2023-01-01T18:18:29;12.60;99.90
21019;DHT22;10667;51.056;3.732;2023-01-01T18:21:06;12.50;99.90
21019;DHT22;10667;51.056;3.732;2023-01-01T18:23:33;12.50;99.90
21019;DHT22;10667;51.056;3.732;2023-01-01T18:26:01;12.50;99.90
21019;DHT22;10667;51.056;3.732;2023-01-01T18:28:27;12.50;99.90
21019;DHT22;10667;51.056;3.732;2023-01-01T18:30:53;12.60;99.90
21019;DHT22;10667;51.056;3.732;2023-01-01T18:33:19;12.40;99.90
21019;DHT22;10667;51.056;3.732;2023-01-01T18:35:44;12.40;99.90